createdAt,value
2022-08-26T00:02:11.431Z,98792.78
2022-08-26T00:04:39.427Z,98795.09
2022-08-26T00:07:07.400Z,98791.78
2022-08-26T00:09:40.284Z,98793.78
2022-08-26T00:12:12.091Z,98799.63
2022-08-26T00:14:41.742Z,98798.41
2022-08-26T00:17:10.073Z,98798.91
2022-08-26T00:19:38.361Z,98794.88
2022-08-26T00:22:06.802Z,98797.81
2022-08-26T00:24:34.838Z,98792.72
2022-08-26T00:27:04.171Z,98799.69
2022-08-26T00:29:37.488Z,98801.16
2022-08-26T00:32:06.598Z,98799.34
2022-08-26T00:34:35.685Z,98799.34
2022-08-26T00:37:03.591Z,98793.59
2022-08-26T00:39:31.506Z,98793.97
2022-08-26T00:42:00.498Z,98795.75
2022-08-26T00:44:29.706Z,98792.38
2022-08-26T00:47:03.746Z,98795.53
2022-08-26T00:49:39.046Z,98790.03
2022-08-26T00:52:12.054Z,98790.38
2022-08-26T00:54:46.758Z,98789.09
2022-08-26T00:57:17.736Z,98799.25
2022-08-26T00:59:51.665Z,98796.19
2022-08-26T01:02:20.929Z,98796.75
2022-08-26T01:04:54.281Z,98791.13
2022-08-26T01:07:27.567Z,98797.03
2022-08-26T01:10:00.815Z,98801.22
2022-08-26T01:12:32.827Z,98804.88
2022-08-26T01:15:03.543Z,98797.69
2022-08-26T01:17:33.894Z,98801.56
2022-08-26T01:20:08.903Z,98801.56
2022-08-26T01:22:50.504Z,98801.22
2022-08-26T01:25:22.211Z,98799.06
2022-08-26T01:27:52.149Z,98797.34
2022-08-26T01:30:21.027Z,98798.72
2022-08-26T01:32:51.600Z,98794.47
2022-08-26T01:35:20.291Z,98797.28
2022-08-26T01:37:53.291Z,98801.59
2022-08-26T01:40:25.676Z,98800.59
2022-08-26T01:42:54.925Z,98806.09
2022-08-26T01:45:26.554Z,98790.41
2022-08-26T01:47:57.386Z,98799.91
2022-08-26T01:50:30.633Z,98795.09
2022-08-26T01:53:03.374Z,98787.75
2022-08-26T01:55:34.133Z,98792.72
2022-08-26T01:58:05.381Z,98791.16
2022-08-26T02:00:35.026Z,98799.97
2022-08-26T02:03:18.060Z,98787.25
2022-08-26T02:05:48.920Z,98795.03
2022-08-26T02:08:24.864Z,98792.38
2022-08-26T02:10:54.716Z,98793.91
2022-08-26T02:13:26.431Z,98798.59
2022-08-26T02:15:56.249Z,98796.47
2022-08-26T02:18:26.551Z,98802.63
2022-08-26T02:20:56.407Z,98802.56
2022-08-26T02:23:26.242Z,98799.47
2022-08-26T02:25:58.335Z,98794.56
2022-08-26T02:28:29.505Z,98793.06
2022-08-26T02:30:57.424Z,98787.81
2022-08-26T02:33:25.624Z,98792.16
2022-08-26T02:35:53.502Z,98785.63
2022-08-26T02:38:21.477Z,98784.88
2022-08-26T02:40:50.881Z,98781.38
2022-08-26T02:43:19.054Z,98786.25
2022-08-26T02:46:01.836Z,98783.03
2022-08-26T02:48:30.182Z,98777.72
2022-08-26T02:50:59.933Z,98775.13
2022-08-26T02:53:27.900Z,98766.56
2022-08-26T02:56:01.333Z,98774.09
2022-08-26T02:58:29.285Z,98771.84
2022-08-26T03:00:57.481Z,98774.44
2022-08-26T03:03:26.590Z,98770.03
2022-08-26T03:05:55.928Z,98770.63
2022-08-26T03:08:23.933Z,98772.41
2022-08-26T03:10:53.269Z,98780.97
2022-08-26T03:13:22.566Z,98779.47
2022-08-26T03:15:50.742Z,98777.44
2022-08-26T03:18:18.648Z,98777.28
2022-08-26T03:20:48.393Z,98773.97
2022-08-26T03:23:16.685Z,98781.75
2022-08-26T03:25:50.121Z,98777.72
2022-08-26T03:28:18.203Z,98773.81
2022-08-26T03:30:48.107Z,98775.59
2022-08-26T03:33:17.128Z,98779.41
2022-08-26T03:35:47.397Z,98772.06
2022-08-26T03:38:15.747Z,98772.38
2022-08-26T03:40:44.025Z,98777.72
2022-08-26T03:43:13.002Z,98775.59
2022-08-26T03:45:41.908Z,98771.53
2022-08-26T03:48:12.449Z,98770.19
2022-08-26T03:50:40.469Z,98776.19
2022-08-26T03:53:12.850Z,98769.19
2022-08-26T03:55:42.012Z,98767.97
2022-08-26T03:58:11.639Z,98767.16
2022-08-26T04:00:39.699Z,98769.03
2022-08-26T04:03:09.892Z,98769.38
2022-08-26T04:05:39.699Z,98770.72
2022-08-26T04:08:08.876Z,98772.28
2022-08-26T04:10:38.929Z,98767.66
2022-08-26T04:13:07.172Z,98776.88
2022-08-26T04:15:35.270Z,98766.22
2022-08-26T04:18:03.162Z,98761.69
2022-08-26T04:20:31.295Z,98763.56
2022-08-26T04:23:00.526Z,98762.22
2022-08-26T04:25:28.724Z,98761.16
2022-08-26T04:27:56.828Z,98766.00
2022-08-26T04:30:25.280Z,98768.06
2022-08-26T04:32:53.641Z,98767.06
2022-08-26T04:35:25.420Z,98773.38
2022-08-26T04:37:54.133Z,98771.88
2022-08-26T04:40:23.970Z,98780.97
2022-08-26T04:42:53.753Z,98776.28
2022-08-26T04:45:22.892Z,98773.19
2022-08-26T04:47:54.631Z,98774.16
2022-08-26T04:50:23.698Z,98775.31
2022-08-26T04:52:52.951Z,98786.53
2022-08-26T04:55:20.851Z,98783.13
2022-08-26T04:57:55.112Z,98786.34
2022-08-26T05:00:23.230Z,98787.69
2022-08-26T05:02:51.532Z,98790.03
2022-08-26T05:05:19.479Z,98788.69
2022-08-26T05:07:48.775Z,98794.72
2022-08-26T05:10:17.969Z,98787.72
2022-08-26T05:12:46.583Z,98793.47
2022-08-26T05:15:15.947Z,98785.00
2022-08-26T05:17:44.223Z,98788.88
2022-08-26T05:20:12.418Z,98804.78
2022-08-26T05:22:40.385Z,98802.69
2022-08-26T05:25:09.138Z,98801.66
2022-08-26T05:27:37.010Z,98786.41
2022-08-26T05:30:06.504Z,98796.06
2022-08-26T05:32:35.745Z,98798.25
2022-08-26T05:35:04.312Z,98790.94
2022-08-26T05:37:38.339Z,98793.84
2022-08-26T05:40:07.136Z,98788.47
2022-08-26T05:42:36.364Z,98783.88
2022-08-26T05:45:04.729Z,98789.56
2022-08-26T05:47:32.692Z,98788.75
2022-08-26T05:50:05.449Z,98802.88
2022-08-26T05:52:33.626Z,98800.06
2022-08-26T05:55:01.479Z,98798.59
2022-08-26T05:57:30.015Z,98792.97
2022-08-26T05:59:58.521Z,98789.47
2022-08-26T06:02:26.351Z,98793.41
2022-08-26T06:04:54.524Z,98791.00
2022-08-26T06:07:44.072Z,98789.81
2022-08-26T06:10:31.590Z,98801.69
2022-08-26T06:13:09.101Z,98797.69
2022-08-26T06:15:43.041Z,98802.19
2022-08-26T06:18:14.106Z,98797.81
2022-08-26T06:20:44.089Z,98812.59
2022-08-26T06:23:45.866Z,98815.16
2022-08-26T06:26:14.937Z,98821.47
2022-08-26T06:28:45.391Z,98823.59
2022-08-26T06:31:14.399Z,98814.56
2022-08-26T06:33:42.432Z,98817.44
2022-08-26T06:36:10.305Z,98820.84
2022-08-26T06:38:39.808Z,98824.25
2022-08-26T06:41:11.472Z,98828.44
2022-08-26T06:43:39.485Z,98818.06
2022-08-26T06:46:09.083Z,98816.34
2022-08-26T06:48:37.482Z,98822.09
2022-08-26T06:51:07.839Z,98823.16
2022-08-26T06:53:36.760Z,98821.88
2022-08-26T06:56:08.462Z,98824.78
2022-08-26T06:58:38.835Z,98818.88
2022-08-26T07:01:17.053Z,98814.19
2022-08-26T07:03:46.770Z,98814.44
2022-08-26T07:06:15.448Z,98816.97
2022-08-26T07:08:44.501Z,98819.56
2022-08-26T07:11:13.810Z,98816.03
2022-08-26T07:13:41.653Z,98817.09
2022-08-26T07:16:14.972Z,98815.78
2022-08-26T07:18:44.779Z,98820.44
2022-08-26T07:21:17.217Z,98810.50
2022-08-26T07:23:46.270Z,98822.19
2022-08-26T07:26:18.751Z,98832.00
2022-08-26T07:28:48.438Z,98826.59
2022-08-26T07:31:17.648Z,98821.41
2022-08-26T07:33:46.021Z,98818.31
2022-08-26T07:36:15.819Z,98828.56
2022-08-26T07:38:45.254Z,98823.34
2022-08-26T07:41:14.600Z,98817.22
2022-08-26T07:43:44.045Z,98815.78
2022-08-26T07:46:16.476Z,98827.09
2022-08-26T07:48:46.223Z,98832.22
2022-08-26T07:51:15.324Z,98817.38
2022-08-26T07:53:44.285Z,98822.22
2022-08-26T07:56:16.233Z,98824.72
2022-08-26T07:58:48.992Z,98823.72
2022-08-26T08:01:19.561Z,98817.88
2022-08-26T08:03:48.053Z,98817.06
2022-08-26T08:06:18.665Z,98818.44
2022-08-26T08:08:47.601Z,98819.97
2022-08-26T08:11:20.448Z,98818.97
2022-08-26T08:13:52.419Z,98816.06
2022-08-26T08:16:25.073Z,98807.72
2022-08-26T08:18:54.428Z,98813.53
2022-08-26T08:21:24.352Z,98804.59
2022-08-26T08:23:53.606Z,98806.72
2022-08-26T08:26:21.986Z,98803.81
2022-08-26T08:28:52.150Z,98797.38
2022-08-26T08:31:38.766Z,98800.44
2022-08-26T08:34:09.033Z,98793.16
2022-08-26T08:36:36.949Z,98798.44
2022-08-26T08:39:04.841Z,98800.03
2022-08-26T08:41:54.563Z,98793.91
2022-08-26T08:46:59.683Z,98791.44
2022-08-26T08:49:29.304Z,98792.31
2022-08-26T08:52:02.782Z,98783.53
2022-08-26T08:54:33.932Z,98782.56
2022-08-26T08:57:11.160Z,98781.09
2022-08-26T08:59:53.225Z,98775.91
2022-08-26T09:02:29.300Z,98772.75
2022-08-26T09:05:22.417Z,98779.88
2022-08-26T09:07:54.579Z,98769.38
2022-08-26T09:10:36.575Z,98771.22
2022-08-26T09:13:07.939Z,98766.47
2022-08-26T09:15:47.932Z,98770.16
2022-08-26T09:18:28.947Z,98766.38
2022-08-26T09:21:00.229Z,98768.59
2022-08-26T09:23:28.173Z,98760.16
2022-08-26T09:25:58.648Z,98759.34
2022-08-26T09:28:29.171Z,98756.75
2022-08-26T09:31:11.475Z,98752.91
2022-08-26T09:33:41.480Z,98749.97
2022-08-26T09:36:16.341Z,98753.78
2022-08-26T09:38:44.825Z,98741.47
2022-08-26T09:41:31.646Z,98738.09
2022-08-26T09:44:18.950Z,98725.03
2022-08-26T09:46:55.673Z,98724.50
2022-08-26T09:49:35.775Z,98713.34
2022-08-26T09:52:08.473Z,98703.16
2022-08-26T09:54:39.005Z,98704.78
2022-08-26T09:57:25.812Z,98695.66
2022-08-26T09:59:54.066Z,98700.38
2022-08-26T10:02:41.455Z,98688.56
2022-08-26T10:05:19.058Z,98676.41
2022-08-26T10:07:50.720Z,98677.78
2022-08-26T10:10:24.019Z,98677.69
2022-08-26T10:12:59.953Z,98672.31
2022-08-26T10:15:29.081Z,98668.06
2022-08-26T10:18:05.517Z,98665.09
2022-08-26T10:20:37.080Z,98657.53
2022-08-26T10:23:11.049Z,98650.16
2022-08-26T10:25:46.489Z,98654.28
2022-08-26T10:28:23.567Z,98652.88
2022-08-26T10:30:57.179Z,98642.91
2022-08-26T10:33:26.476Z,98644.22
2022-08-26T10:35:58.419Z,98653.06
2022-08-26T10:38:31.007Z,98654.88
2022-08-26T10:41:10.410Z,98651.34
2022-08-26T10:43:43.360Z,98651.16
2022-08-26T10:46:17.208Z,98647.59
2022-08-26T10:48:52.131Z,98648.63
2022-08-26T10:51:26.557Z,98653.00
2022-08-26T10:53:59.899Z,98650.47
2022-08-26T10:56:43.047Z,98641.34
2022-08-26T10:59:24.713Z,98645.53
2022-08-26T11:02:06.381Z,98649.13
2022-08-26T11:04:48.243Z,98643.91
2022-08-26T11:07:38.062Z,98632.44
2022-08-26T11:10:09.450Z,98637.28
2022-08-26T11:12:58.881Z,98639.03
2022-08-26T11:16:01.093Z,98624.03
2022-08-26T11:18:48.611Z,98621.94
2022-08-26T11:21:49.510Z,98627.25
2022-08-26T11:25:11.394Z,98623.31
2022-08-26T11:27:57.267Z,98630.97
2022-08-26T11:30:56.913Z,98626.44
2022-08-26T11:33:59.919Z,98610.94
2022-08-26T11:36:59.745Z,98609.28
2022-08-26T11:39:36.801Z,98597.41
2022-08-26T11:42:29.456Z,98595.16
2022-08-26T11:44:59.880Z,98592.75
2022-08-26T11:47:32.872Z,98586.19
2022-08-26T11:50:13.866Z,98576.44
2022-08-26T11:52:52.013Z,98577.53
2022-08-26T11:55:20.380Z,98571.44
2022-08-26T11:57:54.793Z,98577.75
2022-08-26T12:00:25.301Z,98582.53
2022-08-26T12:02:55.574Z,98581.97
2022-08-26T12:05:30.897Z,98585.41
2022-08-26T12:08:07.334Z,98578.50
2022-08-26T12:10:36.477Z,98573.84
2022-08-26T12:13:07.198Z,98574.59
2022-08-26T12:15:36.746Z,98579.84
2022-08-26T12:18:29.206Z,98584.28
2022-08-26T12:21:01.227Z,98579.03
2022-08-26T12:23:41.115Z,98569.28
2022-08-26T12:26:12.622Z,98566.34
2022-08-26T12:28:45.181Z,98565.81
2022-08-26T12:31:13.174Z,98553.28
2022-08-26T12:33:45.556Z,98552.47
2022-08-26T12:36:13.992Z,98564.91
2022-08-26T12:38:43.339Z,98546.91
2022-08-26T12:41:11.175Z,98536.38
2022-08-26T12:43:44.441Z,98539.28
2022-08-26T12:46:15.484Z,98529.53
2022-08-26T12:48:45.713Z,98536.22
2022-08-26T12:51:25.165Z,98530.72
2022-08-26T12:53:55.326Z,98529.84
2022-08-26T12:56:28.573Z,98516.00
2022-08-26T12:59:06.005Z,98524.50
2022-08-26T13:01:40.218Z,98522.69
2022-08-26T13:04:08.612Z,98518.28
2022-08-26T13:06:36.508Z,98533.22
2022-08-26T13:09:26.915Z,98532.56
2022-08-26T13:12:00.309Z,98536.56
2022-08-26T13:14:31.510Z,98542.59
2022-08-26T13:16:59.730Z,98536.97
2022-08-26T13:19:28.104Z,98550.91
2022-08-26T13:21:58.404Z,98547.69
2022-08-26T13:24:32.235Z,98555.34
2022-08-26T13:27:00.722Z,98553.09
2022-08-26T13:29:29.814Z,98547.19
2022-08-26T13:31:59.039Z,98560.06
2022-08-26T13:34:28.248Z,98562.53
2022-08-26T13:36:58.159Z,98577.50
2022-08-26T13:39:27.726Z,98564.03
2022-08-26T13:41:55.968Z,98564.06
2022-08-26T13:44:23.871Z,98563.06
2022-08-26T13:46:52.277Z,98563.53
2022-08-26T13:49:20.139Z,98566.53
2022-08-26T13:51:48.004Z,98572.16
2022-08-26T13:54:16.220Z,98572.81
2022-08-26T13:56:46.049Z,98572.56
2022-08-26T13:59:13.972Z,98576.06
2022-08-26T14:01:42.154Z,98583.34
2022-08-26T14:04:10.240Z,98583.56
2022-08-26T14:06:38.448Z,98596.69
2022-08-26T14:09:06.388Z,98583.81
2022-08-26T14:11:41.235Z,98576.16
2022-08-26T14:14:20.183Z,98570.94
2022-08-26T14:16:58.633Z,98574.59
2022-08-26T14:19:27.272Z,98570.03
2022-08-26T14:21:55.328Z,98596.34
2022-08-26T14:24:23.679Z,98591.53
2022-08-26T14:26:51.582Z,98598.06
2022-08-26T14:29:20.954Z,98604.38
2022-08-26T14:31:49.179Z,98625.91
2022-08-26T14:34:17.147Z,98640.66
2022-08-26T14:36:45.022Z,98649.31
2022-08-26T14:39:14.712Z,98647.13
2022-08-26T14:41:54.362Z,98649.31
2022-08-26T14:44:28.583Z,98622.59
2022-08-26T14:46:56.863Z,98624.78
2022-08-26T14:49:27.234Z,98630.75
2022-08-26T14:51:56.393Z,98623.00
2022-08-26T14:54:23.439Z,98628.00
2022-08-26T14:56:54.881Z,98626.38
2022-08-26T14:59:27.344Z,98606.53
2022-08-26T15:01:56.303Z,98600.66
2022-08-26T15:04:25.685Z,98588.53
2022-08-26T15:06:54.299Z,98581.25
2022-08-26T15:09:22.654Z,98567.47
2022-08-26T15:11:50.701Z,98563.78
2022-08-26T15:14:20.092Z,98561.50
2022-08-26T15:16:50.927Z,98566.56
2022-08-26T15:19:20.763Z,98564.59
2022-08-26T15:21:49.081Z,98557.84
2022-08-26T15:24:19.166Z,98579.06
2022-08-26T15:26:47.344Z,98572.22
2022-08-26T15:29:16.369Z,98574.69
2022-08-26T15:31:44.477Z,98573.94
2022-08-26T15:34:16.803Z,98567.91
2022-08-26T15:36:46.743Z,98578.84
2022-08-26T15:39:15.584Z,98583.19
2022-08-26T15:41:43.791Z,98569.88
2022-08-26T15:44:13.740Z,98560.94
2022-08-26T15:46:42.112Z,98569.31
2022-08-26T15:49:17.535Z,98569.09
2022-08-26T15:51:50.315Z,98559.81
2022-08-26T15:54:21.524Z,98560.19
2022-08-26T15:56:52.428Z,98566.09
2022-08-26T15:59:22.670Z,98573.38
2022-08-26T16:01:50.950Z,98562.59
2022-08-26T16:04:19.288Z,98576.75
2022-08-26T16:06:50.307Z,98571.19
2022-08-26T16:09:18.906Z,98580.97
2022-08-26T16:11:46.825Z,98574.16
2022-08-26T16:14:14.829Z,98583.53
2022-08-26T16:16:42.727Z,98585.06
2022-08-26T16:19:11.553Z,98573.53
2022-08-26T16:21:41.512Z,98578.44
2022-08-26T16:24:11.655Z,98576.97
2022-08-26T16:26:41.482Z,98573.69
2022-08-26T16:29:12.226Z,98571.47
2022-08-26T16:31:40.424Z,98575.69
2022-08-26T16:34:09.568Z,98569.41
2022-08-26T16:36:39.184Z,98562.47
2022-08-26T16:39:08.642Z,98567.13
2022-08-26T16:41:37.915Z,98568.81
2022-08-26T16:44:06.936Z,98574.75
2022-08-26T16:46:35.541Z,98573.34
2022-08-26T16:49:04.666Z,98567.50
2022-08-26T16:51:38.180Z,98564.34
2022-08-26T16:54:08.288Z,98564.38
2022-08-26T16:56:38.650Z,98558.94
2022-08-26T16:59:09.422Z,98558.41
2022-08-26T17:01:37.473Z,98556.63
2022-08-26T17:04:05.450Z,98568.19
2022-08-26T17:06:34.005Z,98566.84
2022-08-26T17:09:01.865Z,98570.00
2022-08-26T17:11:29.700Z,98564.19
2022-08-26T17:13:59.223Z,98570.66
2022-08-26T17:16:27.757Z,98571.34
2022-08-26T17:18:56.850Z,98563.84
2022-08-26T17:21:25.311Z,98565.28
2022-08-26T17:23:53.540Z,98571.13
2022-08-26T17:26:21.620Z,98562.22
2022-08-26T17:28:50.057Z,98572.63
2022-08-26T17:31:19.895Z,98569.50
2022-08-26T17:33:53.859Z,98574.03
2022-08-26T17:36:28.161Z,98571.50
2022-08-26T17:38:57.280Z,98571.31
2022-08-26T17:41:26.371Z,98569.44
2022-08-26T17:43:54.436Z,98576.88
2022-08-26T17:46:23.903Z,98568.81
2022-08-26T17:48:52.048Z,98570.22
2022-08-26T17:51:20.814Z,98579.00
2022-08-26T17:53:49.718Z,98579.66
2022-08-26T17:56:20.554Z,98578.97
2022-08-26T17:58:51.827Z,98581.25
2022-08-26T18:01:20.153Z,98584.03
2022-08-26T18:03:50.236Z,98589.88
2022-08-26T18:06:18.205Z,98595.16
2022-08-26T18:08:46.403Z,98591.19
2022-08-26T18:11:16.504Z,98592.84
2022-08-26T18:13:46.051Z,98591.84
2022-08-26T18:16:17.283Z,98602.00
2022-08-26T18:18:45.427Z,98610.72
2022-08-26T18:21:17.700Z,98625.41
2022-08-26T18:23:46.785Z,98660.59
2022-08-26T18:26:18.120Z,98680.72
2022-08-26T18:28:46.636Z,98676.97
2022-08-26T18:31:15.454Z,98670.34
2022-08-26T18:33:45.019Z,98688.06
2022-08-26T18:36:19.476Z,98681.53
2022-08-26T18:38:50.439Z,98686.03
2022-08-26T18:41:20.860Z,98698.22
2022-08-26T18:43:51.253Z,98699.59
2022-08-26T18:46:22.541Z,98698.56
2022-08-26T18:48:51.311Z,98699.91
2022-08-26T18:51:24.152Z,98701.50
2022-08-26T18:53:52.625Z,98710.25
2022-08-26T18:56:21.069Z,98717.97
2022-08-26T18:58:49.445Z,98721.31
2022-08-26T19:01:18.875Z,98721.53
2022-08-26T19:03:47.695Z,98723.13
2022-08-26T19:06:16.421Z,98735.88
2022-08-26T19:08:46.261Z,98741.56
2022-08-26T19:11:31.985Z,98746.44
2022-08-26T19:14:01.314Z,98742.97
2022-08-26T19:16:30.446Z,98736.72
2022-08-26T19:19:00.601Z,98747.81
2022-08-26T19:21:29.720Z,98748.72
2022-08-26T19:24:00.030Z,98758.69
2022-08-26T19:26:28.354Z,98770.06
2022-08-26T19:28:57.277Z,98786.44
2022-08-26T19:31:25.324Z,98787.84
2022-08-26T19:33:53.617Z,98779.47
2022-08-26T19:36:24.835Z,98787.81
2022-08-26T19:38:53.599Z,98778.50
2022-08-26T19:41:31.669Z,98772.44
2022-08-26T19:44:08.163Z,98765.34
2022-08-26T19:46:40.094Z,98761.88
2022-08-26T19:49:08.310Z,98751.63
2022-08-26T19:51:37.539Z,98748.03
2022-08-26T19:54:06.319Z,98739.94
2022-08-26T19:56:36.522Z,98732.34
2022-08-26T19:59:04.524Z,98739.50
2022-08-26T20:01:32.604Z,98740.97
2022-08-26T20:04:00.491Z,98739.06
2022-08-26T20:06:28.368Z,98750.13
2022-08-26T20:08:56.472Z,98750.16
2022-08-26T20:11:25.304Z,98759.78
2022-08-26T20:13:55.216Z,98765.31
2022-08-26T20:16:23.230Z,98762.66
2022-08-26T20:19:08.562Z,98752.19
2022-08-26T20:21:39.362Z,98753.22
2022-08-26T20:24:10.511Z,98756.50
2022-08-26T20:26:40.607Z,98761.72
2022-08-26T20:29:11.657Z,98764.16
2022-08-26T20:31:40.320Z,98749.63
2022-08-26T20:34:08.454Z,98756.94
2022-08-26T20:36:38.191Z,98754.38
2022-08-26T20:39:06.581Z,98754.78
2022-08-26T20:41:34.533Z,98769.13
2022-08-26T20:44:03.062Z,98765.22
2022-08-26T20:46:34.624Z,98763.34
2022-08-26T20:49:02.905Z,98755.50
2022-08-26T20:51:34.782Z,98764.88
2022-08-26T20:54:02.635Z,98754.84
2022-08-26T20:56:30.448Z,98755.25
2022-08-26T20:59:00.945Z,98750.78
2022-08-26T21:01:34.370Z,98755.38
2022-08-26T21:04:06.176Z,98771.84
2022-08-26T21:06:35.182Z,98766.38
2022-08-26T21:09:05.005Z,98772.78
2022-08-26T21:11:33.167Z,98765.50
2022-08-26T21:14:06.797Z,98767.31
2022-08-26T21:16:44.229Z,98772.22
2022-08-26T21:19:15.496Z,98776.44
2022-08-26T21:21:44.432Z,98768.22
2022-08-26T21:24:13.082Z,98771.91
2022-08-26T21:26:41.212Z,98776.44
2022-08-26T21:29:10.477Z,98770.72
2022-08-26T21:31:44.929Z,98778.56
2022-08-26T21:34:15.705Z,98772.75
2022-08-26T21:36:43.693Z,98775.16
2022-08-26T21:39:12.418Z,98770.84
2022-08-26T21:41:40.718Z,98765.19
2022-08-26T21:44:09.450Z,98765.97
2022-08-26T21:46:37.652Z,98765.13
2022-08-26T21:49:10.898Z,98752.72
2022-08-26T21:51:42.839Z,98747.47
2022-08-26T21:54:11.676Z,98744.16
2022-08-26T21:56:42.064Z,98745.78
2022-08-26T21:59:10.677Z,98752.81
2022-08-26T22:01:38.849Z,98753.06
2022-08-26T22:04:08.994Z,98745.22
2022-08-26T22:06:43.869Z,98743.44
2022-08-26T22:09:13.221Z,98745.94
2022-08-26T22:11:42.017Z,98748.78
2022-08-26T22:14:10.349Z,98750.06
2022-08-26T22:16:38.287Z,98749.44
2022-08-26T22:19:06.358Z,98746.22
2022-08-26T22:21:35.711Z,98735.66
2022-08-26T22:24:07.073Z,98742.13
2022-08-26T22:26:35.670Z,98743.09
2022-08-26T22:29:04.775Z,98739.88
2022-08-26T22:31:38.035Z,98742.00
2022-08-26T22:34:08.543Z,98755.50
2022-08-26T22:36:39.812Z,98739.03
2022-08-26T22:39:14.517Z,98740.66
2022-08-26T22:41:43.108Z,98737.66
2022-08-26T22:44:11.725Z,98747.91
2022-08-26T22:46:40.955Z,98745.66
2022-08-26T22:49:09.494Z,98748.56
2022-08-26T22:51:37.398Z,98748.66
2022-08-26T22:54:06.425Z,98760.13
2022-08-26T22:56:36.634Z,98750.19
2022-08-26T22:59:05.203Z,98742.22
2022-08-26T23:01:36.187Z,98750.63
2022-08-26T23:04:05.338Z,98748.47
2022-08-26T23:06:33.339Z,98746.22
2022-08-26T23:09:01.198Z,98746.16
2022-08-26T23:11:29.116Z,98734.09
2022-08-26T23:13:58.389Z,98744.66
2022-08-26T23:16:29.467Z,98746.44
2022-08-26T23:19:06.838Z,98727.19
2022-08-26T23:21:35.185Z,98735.63
2022-08-26T23:24:03.212Z,98736.22
2022-08-26T23:26:31.892Z,98737.00
2022-08-26T23:29:01.434Z,98732.06
2022-08-26T23:31:29.457Z,98734.34
2022-08-26T23:34:14.923Z,98737.13
2022-08-26T23:36:43.348Z,98732.06
2022-08-26T23:39:14.134Z,98736.47
2022-08-26T23:41:42.215Z,98740.28
2022-08-26T23:44:12.324Z,98733.97
2022-08-26T23:46:40.318Z,98728.28
2022-08-26T23:49:08.266Z,98732.72
2022-08-26T23:51:54.096Z,98734.44
2022-08-26T23:54:22.222Z,98730.84
2022-08-26T23:56:50.373Z,98735.41
2022-08-26T23:59:19.651Z,98734.72
